sensor_id;sensor_type;location;lat;lon;timestamp;temperature;humidity
17571;DHT22;8903;52.220;20.978;2023-05-07T00:00:54;6.40;99.90
17571;DHT22;8903;52.220;20.978;2023-05-07T00:03:21;6.30;99.90
17571;DHT22;8903;52.220;20.978;2023-05-07T00:05:48;6.40;99.90
17571;DHT22;8903;52.220;20.978;2023-05-07T00:08:17;6.30;99.90
17571;DHT22;8903;52.220;20.978;2023-05-07T00:10:44;6.30;99.90
17571;DHT22;8903;52.220;20.978;2023-05-07T00:13:12;6.30;99.90
17571;DHT22;8903;52.220;20.978;2023-05-07T00:15:39;6.30;99.90
17571;DHT22;8903;52.220;20.978;2023-05-07T00:18:06;6.30;99.90
17571;DHT22;8903;52.220;20.978;2023-05-07T00:20:33;6.30;99.90
17571;DHT22;8903;52.220;20.978;2023-05-07T00:23:00;6.30;99.90
17571;DHT22;8903;52.220;20.978;2023-05-07T00:25:28;6.20;99.90
17571;DHT22;8903;52.220;20.978;2023-05-07T00:27:56;6.20;99.90
17571;DHT22;8903;52.220;20.978;2023-05-07T00:30:23;6.20;99.90
17571;DHT22;8903;52.220;20.978;2023-05-07T00:32:50;6.20;99.90
17571;DHT22;8903;52.220;20.978;2023-05-07T00:35:17;6.20;99.90
17571;DHT22;8903;52.220;20.978;2023-05-07T00:37:44;6.20;99.90
17571;DHT22;8903;52.220;20.978;2023-05-07T00:40:11;6.20;99.90
17571;DHT22;8903;52.220;20.978;2023-05-07T00:42:39;6.10;99.90
17571;DHT22;8903;52.220;20.978;2023-05-07T00:45:08;6.20;99.90
17571;DHT22;8903;52.220;20.978;2023-05-07T00:47:36;6.10;99.90
17571;DHT22;8903;52.220;20.978;2023-05-07T00:50:04;6.10;99.90
17571;DHT22;8903;52.220;20.978;2023-05-07T00:52:32;6.20;99.90
17571;DHT22;8903;52.220;20.978;2023-05-07T00:55:01;6.20;99.90
17571;DHT22;8903;52.220;20.978;2023-05-07T00:57:33;6.20;99.90
17571;DHT22;8903;52.220;20.978;2023-05-07T01:00:05;6.20;99.90
17571;DHT22;8903;52.220;20.978;2023-05-07T01:02:34;6.10;99.90
17571;DHT22;8903;52.220;20.978;2023-05-07T01:05:03;6.10;99.90
17571;DHT22;8903;52.220;20.978;2023-05-07T01:07:32;6.10;99.90
17571;DHT22;8903;52.220;20.978;2023-05-07T01:10:00;6.10;99.90
17571;DHT22;8903;52.220;20.978;2023-05-07T01:12:29;6.10;99.90
17571;DHT22;8903;52.220;20.978;2023-05-07T01:14:57;6.10;99.90
17571;DHT22;8903;52.220;20.978;2023-05-07T01:17:25;6.10;99.90
17571;DHT22;8903;52.220;20.978;2023-05-07T01:19:53;6.10;99.90
17571;DHT22;8903;52.220;20.978;2023-05-07T01:22:29;6.00;99.90
17571;DHT22;8903;52.220;20.978;2023-05-07T01:24:58;6.10;99.90
17571;DHT22;8903;52.220;20.978;2023-05-07T01:27:28;6.00;99.90
17571;DHT22;8903;52.220;20.978;2023-05-07T01:29:55;6.00;99.90
17571;DHT22;8903;52.220;20.978;2023-05-07T01:32:27;6.00;99.90
17571;DHT22;8903;52.220;20.978;2023-05-07T01:34:55;6.00;99.90
17571;DHT22;8903;52.220;20.978;2023-05-07T01:37:25;6.00;99.90
17571;DHT22;8903;52.220;20.978;2023-05-07T01:39:54;6.00;99.90
17571;DHT22;8903;52.220;20.978;2023-05-07T01:42:21;6.00;99.90
17571;DHT22;8903;52.220;20.978;2023-05-07T01:44:48;6.00;99.90
17571;DHT22;8903;52.220;20.978;2023-05-07T01:47:16;6.00;99.90
17571;DHT22;8903;52.220;20.978;2023-05-07T01:49:43;6.00;99.90
17571;DHT22;8903;52.220;20.978;2023-05-07T01:52:11;5.90;99.90
17571;DHT22;8903;52.220;20.978;2023-05-07T01:54:38;6.00;99.90
17571;DHT22;8903;52.220;20.978;2023-05-07T01:57:06;6.00;99.90
17571;DHT22;8903;52.220;20.978;2023-05-07T01:59:33;6.00;99.90
17571;DHT22;8903;52.220;20.978;2023-05-07T02:02:01;5.90;99.90
17571;DHT22;8903;52.220;20.978;2023-05-07T02:04:29;5.90;99.90
17571;DHT22;8903;52.220;20.978;2023-05-07T02:06:56;5.90;99.90
17571;DHT22;8903;52.220;20.978;2023-05-07T02:09:23;5.90;99.90
17571;DHT22;8903;52.220;20.978;2023-05-07T02:11:51;5.90;99.90
17571;DHT22;8903;52.220;20.978;2023-05-07T02:14:21;5.90;99.90
17571;DHT22;8903;52.220;20.978;2023-05-07T02:16:48;5.90;99.90
17571;DHT22;8903;52.220;20.978;2023-05-07T02:19:15;5.90;99.90
17571;DHT22;8903;52.220;20.978;2023-05-07T02:21:42;5.90;99.90
17571;DHT22;8903;52.220;20.978;2023-05-07T02:24:09;5.90;99.90
17571;DHT22;8903;52.220;20.978;2023-05-07T02:26:36;5.90;99.90
17571;DHT22;8903;52.220;20.978;2023-05-07T02:29:03;5.90;99.90
17571;DHT22;8903;52.220;20.978;2023-05-07T02:31:32;5.80;99.90
17571;DHT22;8903;52.220;20.978;2023-05-07T02:34:00;5.80;99.90
17571;DHT22;8903;52.220;20.978;2023-05-07T02:36:27;5.80;99.90
17571;DHT22;8903;52.220;20.978;2023-05-07T02:39:01;5.80;99.90
17571;DHT22;8903;52.220;20.978;2023-05-07T02:41:29;5.80;99.90
17571;DHT22;8903;52.220;20.978;2023-05-07T02:43:56;5.80;99.90
17571;DHT22;8903;52.220;20.978;2023-05-07T02:46:23;5.80;99.90
17571;DHT22;8903;52.220;20.978;2023-05-07T02:48:59;5.80;99.90
17571;DHT22;8903;52.220;20.978;2023-05-07T02:51:26;5.80;99.90
17571;DHT22;8903;52.220;20.978;2023-05-07T02:53:56;5.80;99.90
17571;DHT22;8903;52.220;20.978;2023-05-07T02:56:25;5.80;99.90
17571;DHT22;8903;52.220;20.978;2023-05-07T02:58:52;5.80;99.90
17571;DHT22;8903;52.220;20.978;2023-05-07T03:01:22;5.80;99.90
17571;DHT22;8903;52.220;20.978;2023-05-07T03:04:10;5.80;99.90
17571;DHT22;8903;52.220;20.978;2023-05-07T03:06:37;5.90;99.90
17571;DHT22;8903;52.220;20.978;2023-05-07T03:09:04;5.90;99.90
17571;DHT22;8903;52.220;20.978;2023-05-07T03:11:32;5.90;99.90
17571;DHT22;8903;52.220;20.978;2023-05-07T03:13:59;5.90;99.90
17571;DHT22;8903;52.220;20.978;2023-05-07T03:16:26;5.90;99.90
17571;DHT22;8903;52.220;20.978;2023-05-07T03:18:53;5.80;99.90
17571;DHT22;8903;52.220;20.978;2023-05-07T03:21:22;5.90;99.90
17571;DHT22;8903;52.220;20.978;2023-05-07T03:23:49;5.80;99.90
17571;DHT22;8903;52.220;20.978;2023-05-07T03:26:16;5.90;99.90
17571;DHT22;8903;52.220;20.978;2023-05-07T03:28:44;5.90;99.90
17571;DHT22;8903;52.220;20.978;2023-05-07T03:31:14;5.90;99.90
17571;DHT22;8903;52.220;20.978;2023-05-07T03:33:50;5.90;99.90
17571;DHT22;8903;52.220;20.978;2023-05-07T03:36:18;5.90;99.90
17571;DHT22;8903;52.220;20.978;2023-05-07T03:38:46;5.90;99.90
17571;DHT22;8903;52.220;20.978;2023-05-07T03:41:16;5.80;99.90
17571;DHT22;8903;52.220;20.978;2023-05-07T03:43:45;5.80;99.90
17571;DHT22;8903;52.220;20.978;2023-05-07T03:46:13;5.90;99.90
17571;DHT22;8903;52.220;20.978;2023-05-07T03:48:41;5.90;99.90
17571;DHT22;8903;52.220;20.978;2023-05-07T03:51:08;5.90;99.90
17571;DHT22;8903;52.220;20.978;2023-05-07T03:53:35;5.90;99.90
17571;DHT22;8903;52.220;20.978;2023-05-07T03:56:04;5.90;99.90
17571;DHT22;8903;52.220;20.978;2023-05-07T03:58:35;5.90;99.90
17571;DHT22;8903;52.220;20.978;2023-05-07T04:01:07;5.90;99.90
17571;DHT22;8903;52.220;20.978;2023-05-07T04:03:34;5.90;99.90
17571;DHT22;8903;52.220;20.978;2023-05-07T04:06:01;5.90;99.90
17571;DHT22;8903;52.220;20.978;2023-05-07T04:08:30;5.90;99.90
17571;DHT22;8903;52.220;20.978;2023-05-07T04:10:58;5.90;99.90
17571;DHT22;8903;52.220;20.978;2023-05-07T04:13:31;5.90;99.90
17571;DHT22;8903;52.220;20.978;2023-05-07T04:16:02;6.00;99.90
17571;DHT22;8903;52.220;20.978;2023-05-07T04:18:29;6.00;99.90
17571;DHT22;8903;52.220;20.978;2023-05-07T04:20:56;6.00;99.90
17571;DHT22;8903;52.220;20.978;2023-05-07T04:23:23;6.00;99.90
17571;DHT22;8903;52.220;20.978;2023-05-07T04:25:50;6.00;99.90
17571;DHT22;8903;52.220;20.978;2023-05-07T04:28:24;6.00;99.90
17571;DHT22;8903;52.220;20.978;2023-05-07T04:30:53;6.00;99.90
17571;DHT22;8903;52.220;20.978;2023-05-07T04:33:21;6.00;99.90
17571;DHT22;8903;52.220;20.978;2023-05-07T04:35:49;6.10;99.90
17571;DHT22;8903;52.220;20.978;2023-05-07T04:38:16;6.10;99.90
17571;DHT22;8903;52.220;20.978;2023-05-07T04:40:45;6.10;99.90
17571;DHT22;8903;52.220;20.978;2023-05-07T04:43:16;6.00;99.90
17571;DHT22;8903;52.220;20.978;2023-05-07T04:45:47;6.10;99.90
17571;DHT22;8903;52.220;20.978;2023-05-07T04:48:18;6.10;99.90
17571;DHT22;8903;52.220;20.978;2023-05-07T04:50:47;6.10;99.90
17571;DHT22;8903;52.220;20.978;2023-05-07T04:53:15;6.10;99.90
17571;DHT22;8903;52.220;20.978;2023-05-07T04:55:43;6.10;99.90
17571;DHT22;8903;52.220;20.978;2023-05-07T04:58:11;6.10;99.90
17571;DHT22;8903;52.220;20.978;2023-05-07T05:00:39;6.20;99.90
17571;DHT22;8903;52.220;20.978;2023-05-07T05:03:07;6.20;99.90
17571;DHT22;8903;52.220;20.978;2023-05-07T05:05:37;6.20;99.90
17571;DHT22;8903;52.220;20.978;2023-05-07T05:08:05;6.30;99.90
17571;DHT22;8903;52.220;20.978;2023-05-07T05:10:35;6.30;99.90
17571;DHT22;8903;52.220;20.978;2023-05-07T05:13:02;6.30;99.90
17571;DHT22;8903;52.220;20.978;2023-05-07T05:15:30;6.40;99.90
17571;DHT22;8903;52.220;20.978;2023-05-07T05:17:57;6.40;99.90
17571;DHT22;8903;52.220;20.978;2023-05-07T05:20:25;6.40;99.90
17571;DHT22;8903;52.220;20.978;2023-05-07T05:22:53;6.50;99.90
17571;DHT22;8903;52.220;20.978;2023-05-07T05:25:20;6.50;99.90
17571;DHT22;8903;52.220;20.978;2023-05-07T05:27:47;6.60;99.90
17571;DHT22;8903;52.220;20.978;2023-05-07T05:30:14;6.70;99.90
17571;DHT22;8903;52.220;20.978;2023-05-07T05:32:44;6.70;99.90
17571;DHT22;8903;52.220;20.978;2023-05-07T05:35:12;6.80;99.90
17571;DHT22;8903;52.220;20.978;2023-05-07T05:37:41;6.90;99.90
17571;DHT22;8903;52.220;20.978;2023-05-07T05:40:10;6.90;99.90
17571;DHT22;8903;52.220;20.978;2023-05-07T05:42:37;7.00;99.90
17571;DHT22;8903;52.220;20.978;2023-05-07T05:45:06;7.00;99.90
17571;DHT22;8903;52.220;20.978;2023-05-07T05:47:34;7.00;99.90
17571;DHT22;8903;52.220;20.978;2023-05-07T05:50:01;7.00;99.90
17571;DHT22;8903;52.220;20.978;2023-05-07T05:52:29;7.00;99.90
17571;DHT22;8903;52.220;20.978;2023-05-07T05:54:56;7.10;99.90
17571;DHT22;8903;52.220;20.978;2023-05-07T05:57:26;7.10;99.90
17571;DHT22;8903;52.220;20.978;2023-05-07T05:59:53;7.20;99.90
17571;DHT22;8903;52.220;20.978;2023-05-07T06:02:20;7.20;99.90
17571;DHT22;8903;52.220;20.978;2023-05-07T06:04:47;7.10;99.90
17571;DHT22;8903;52.220;20.978;2023-05-07T06:07:17;7.10;99.90
17571;DHT22;8903;52.220;20.978;2023-05-07T06:09:44;7.20;99.90
17571;DHT22;8903;52.220;20.978;2023-05-07T06:12:12;7.20;99.90
17571;DHT22;8903;52.220;20.978;2023-05-07T06:14:42;7.20;99.90
17571;DHT22;8903;52.220;20.978;2023-05-07T06:17:10;7.10;99.90
17571;DHT22;8903;52.220;20.978;2023-05-07T06:19:38;7.20;99.90
17571;DHT22;8903;52.220;20.978;2023-05-07T06:22:06;7.30;99.90
17571;DHT22;8903;52.220;20.978;2023-05-07T06:24:34;7.30;99.90
17571;DHT22;8903;52.220;20.978;2023-05-07T06:27:01;7.30;99.90
17571;DHT22;8903;52.220;20.978;2023-05-07T06:29:30;7.40;99.90
17571;DHT22;8903;52.220;20.978;2023-05-07T06:32:07;7.50;99.90
17571;DHT22;8903;52.220;20.978;2023-05-07T06:34:34;7.60;99.90
17571;DHT22;8903;52.220;20.978;2023-05-07T06:37:02;7.60;99.90
17571;DHT22;8903;52.220;20.978;2023-05-07T06:39:43;7.60;99.90
17571;DHT22;8903;52.220;20.978;2023-05-07T06:42:10;7.60;99.90
17571;DHT22;8903;52.220;20.978;2023-05-07T06:44:41;7.60;99.90
17571;DHT22;8903;52.220;20.978;2023-05-07T06:47:12;7.70;99.90
17571;DHT22;8903;52.220;20.978;2023-05-07T06:49:39;7.70;99.90
17571;DHT22;8903;52.220;20.978;2023-05-07T06:52:07;7.70;99.90
17571;DHT22;8903;52.220;20.978;2023-05-07T06:54:33;7.80;99.90
17571;DHT22;8903;52.220;20.978;2023-05-07T06:57:00;7.80;99.90
17571;DHT22;8903;52.220;20.978;2023-05-07T06:59:29;7.80;99.90
17571;DHT22;8903;52.220;20.978;2023-05-07T07:01:56;7.90;99.90
17571;DHT22;8903;52.220;20.978;2023-05-07T07:04:24;8.00;99.90
17571;DHT22;8903;52.220;20.978;2023-05-07T07:06:59;8.00;99.90
17571;DHT22;8903;52.220;20.978;2023-05-07T07:09:27;8.10;99.90
17571;DHT22;8903;52.220;20.978;2023-05-07T07:11:54;8.10;99.90
17571;DHT22;8903;52.220;20.978;2023-05-07T07:14:21;8.30;99.90
17571;DHT22;8903;52.220;20.978;2023-05-07T07:16:50;8.40;99.90
17571;DHT22;8903;52.220;20.978;2023-05-07T07:19:19;8.40;99.90
17571;DHT22;8903;52.220;20.978;2023-05-07T07:21:50;8.40;99.90
17571;DHT22;8903;52.220;20.978;2023-05-07T07:24:17;8.40;99.90
17571;DHT22;8903;52.220;20.978;2023-05-07T07:26:48;8.40;99.90
17571;DHT22;8903;52.220;20.978;2023-05-07T07:29:15;8.40;99.90
17571;DHT22;8903;52.220;20.978;2023-05-07T07:31:45;8.50;99.90
17571;DHT22;8903;52.220;20.978;2023-05-07T07:34:12;8.70;99.90
17571;DHT22;8903;52.220;20.978;2023-05-07T07:36:39;8.60;99.90
17571;DHT22;8903;52.220;20.978;2023-05-07T07:39:09;8.70;99.90
17571;DHT22;8903;52.220;20.978;2023-05-07T07:41:37;8.70;99.90
17571;DHT22;8903;52.220;20.978;2023-05-07T07:44:04;8.80;99.90
17571;DHT22;8903;52.220;20.978;2023-05-07T07:46:34;8.90;99.90
17571;DHT22;8903;52.220;20.978;2023-05-07T07:49:02;8.90;99.90
17571;DHT22;8903;52.220;20.978;2023-05-07T07:51:29;9.00;99.90
17571;DHT22;8903;52.220;20.978;2023-05-07T07:53:58;8.90;99.90
17571;DHT22;8903;52.220;20.978;2023-05-07T07:56:29;9.10;99.90
17571;DHT22;8903;52.220;20.978;2023-05-07T07:58:56;9.20;99.90
17571;DHT22;8903;52.220;20.978;2023-05-07T08:01:23;9.20;99.90
17571;DHT22;8903;52.220;20.978;2023-05-07T08:03:50;9.20;99.90
17571;DHT22;8903;52.220;20.978;2023-05-07T08:06:18;9.10;99.90
17571;DHT22;8903;52.220;20.978;2023-05-07T08:08:45;9.10;99.90
17571;DHT22;8903;52.220;20.978;2023-05-07T08:11:12;9.20;99.90
17571;DHT22;8903;52.220;20.978;2023-05-07T08:13:40;9.30;99.90
17571;DHT22;8903;52.220;20.978;2023-05-07T08:16:07;9.40;99.90
17571;DHT22;8903;52.220;20.978;2023-05-07T08:18:36;9.50;99.90
17571;DHT22;8903;52.220;20.978;2023-05-07T08:21:03;9.60;99.90
17571;DHT22;8903;52.220;20.978;2023-05-07T08:23:31;9.70;99.90
17571;DHT22;8903;52.220;20.978;2023-05-07T08:26:00;9.70;99.90
17571;DHT22;8903;52.220;20.978;2023-05-07T08:28:28;9.60;99.90
17571;DHT22;8903;52.220;20.978;2023-05-07T08:30:57;9.50;99.90
17571;DHT22;8903;52.220;20.978;2023-05-07T08:33:27;9.60;99.90
17571;DHT22;8903;52.220;20.978;2023-05-07T08:35:54;9.70;99.90
17571;DHT22;8903;52.220;20.978;2023-05-07T08:38:21;9.70;99.90
17571;DHT22;8903;52.220;20.978;2023-05-07T08:40:48;9.80;99.90
17571;DHT22;8903;52.220;20.978;2023-05-07T08:43:18;10.00;99.90
17571;DHT22;8903;52.220;20.978;2023-05-07T08:45:49;10.20;99.90
17571;DHT22;8903;52.220;20.978;2023-05-07T08:48:25;10.30;99.90
17571;DHT22;8903;52.220;20.978;2023-05-07T08:51:03;10.40;99.90
17571;DHT22;8903;52.220;20.978;2023-05-07T08:53:31;10.70;99.90
17571;DHT22;8903;52.220;20.978;2023-05-07T08:55:59;10.80;99.90
17571;DHT22;8903;52.220;20.978;2023-05-07T08:58:28;10.60;99.90
17571;DHT22;8903;52.220;20.978;2023-05-07T09:00:56;10.60;99.90
17571;DHT22;8903;52.220;20.978;2023-05-07T09:03:25;10.50;99.90
17571;DHT22;8903;52.220;20.978;2023-05-07T09:05:54;10.50;99.90
17571;DHT22;8903;52.220;20.978;2023-05-07T09:08:25;10.50;99.90
17571;DHT22;8903;52.220;20.978;2023-05-07T09:10:54;10.50;99.90
17571;DHT22;8903;52.220;20.978;2023-05-07T09:13:22;10.60;99.90
17571;DHT22;8903;52.220;20.978;2023-05-07T09:15:50;10.50;99.90
17571;DHT22;8903;52.220;20.978;2023-05-07T09:18:18;10.50;99.90
17571;DHT22;8903;52.220;20.978;2023-05-07T09:20:48;10.50;99.90
17571;DHT22;8903;52.220;20.978;2023-05-07T09:23:18;10.50;99.90
17571;DHT22;8903;52.220;20.978;2023-05-07T09:25:47;10.70;99.90
17571;DHT22;8903;52.220;20.978;2023-05-07T09:28:20;10.90;99.90
17571;DHT22;8903;52.220;20.978;2023-05-07T09:30:48;11.10;99.90
17571;DHT22;8903;52.220;20.978;2023-05-07T09:33:15;11.20;99.90
17571;DHT22;8903;52.220;20.978;2023-05-07T09:35:51;11.00;99.90
17571;DHT22;8903;52.220;20.978;2023-05-07T09:38:20;10.80;99.90
17571;DHT22;8903;52.220;20.978;2023-05-07T09:41:02;10.70;99.90
17571;DHT22;8903;52.220;20.978;2023-05-07T09:43:35;10.70;99.90
17571;DHT22;8903;52.220;20.978;2023-05-07T09:46:07;10.70;99.90
17571;DHT22;8903;52.220;20.978;2023-05-07T09:48:37;10.70;99.90
17571;DHT22;8903;52.220;20.978;2023-05-07T09:51:18;10.80;99.90
17571;DHT22;8903;52.220;20.978;2023-05-07T09:53:48;10.70;99.90
17571;DHT22;8903;52.220;20.978;2023-05-07T09:56:18;10.70;99.90
17571;DHT22;8903;52.220;20.978;2023-05-07T09:58:46;10.90;99.90
17571;DHT22;8903;52.220;20.978;2023-05-07T10:01:14;11.00;99.90
17571;DHT22;8903;52.220;20.978;2023-05-07T10:03:45;11.10;99.90
17571;DHT22;8903;52.220;20.978;2023-05-07T10:06:15;11.10;99.90
17571;DHT22;8903;52.220;20.978;2023-05-07T10:08:43;11.00;99.90
17571;DHT22;8903;52.220;20.978;2023-05-07T10:11:11;10.90;99.90
17571;DHT22;8903;52.220;20.978;2023-05-07T10:13:39;11.00;99.90
17571;DHT22;8903;52.220;20.978;2023-05-07T10:16:09;10.90;99.90
17571;DHT22;8903;52.220;20.978;2023-05-07T10:18:43;10.90;99.90
17571;DHT22;8903;52.220;20.978;2023-05-07T10:21:18;10.80;99.90
17571;DHT22;8903;52.220;20.978;2023-05-07T10:23:50;10.80;99.90
17571;DHT22;8903;52.220;20.978;2023-05-07T10:26:20;10.80;99.90
17571;DHT22;8903;52.220;20.978;2023-05-07T10:28:53;11.00;99.90
17571;DHT22;8903;52.220;20.978;2023-05-07T10:31:41;11.00;99.90
17571;DHT22;8903;52.220;20.978;2023-05-07T10:34:16;11.00;99.90
17571;DHT22;8903;52.220;20.978;2023-05-07T10:36:46;11.10;99.90
17571;DHT22;8903;52.220;20.978;2023-05-07T10:39:13;11.20;99.90
17571;DHT22;8903;52.220;20.978;2023-05-07T10:41:41;11.30;99.90
17571;DHT22;8903;52.220;20.978;2023-05-07T10:44:09;11.20;99.90
17571;DHT22;8903;52.220;20.978;2023-05-07T10:46:37;11.10;99.90
17571;DHT22;8903;52.220;20.978;2023-05-07T10:49:15;11.00;99.90
17571;DHT22;8903;52.220;20.978;2023-05-07T10:52:20;11.10;99.90
17571;DHT22;8903;52.220;20.978;2023-05-07T10:55:20;11.10;99.90
17571;DHT22;8903;52.220;20.978;2023-05-07T10:58:23;11.10;99.90
17571;DHT22;8903;52.220;20.978;2023-05-07T11:00:57;11.10;99.90
17571;DHT22;8903;52.220;20.978;2023-05-07T11:03:29;11.00;99.90
17571;DHT22;8903;52.220;20.978;2023-05-07T11:06:11;11.00;99.90
17571;DHT22;8903;52.220;20.978;2023-05-07T11:08:55;11.00;99.90
17571;DHT22;8903;52.220;20.978;2023-05-07T11:11:44;10.90;99.90
17571;DHT22;8903;52.220;20.978;2023-05-07T11:14:43;10.90;99.90
17571;DHT22;8903;52.220;20.978;2023-05-07T11:17:14;11.00;99.90
17571;DHT22;8903;52.220;20.978;2023-05-07T11:19:50;11.10;99.90
17571;DHT22;8903;52.220;20.978;2023-05-07T11:22:36;11.20;99.90
17571;DHT22;8903;52.220;20.978;2023-05-07T11:25:22;11.40;99.90
17571;DHT22;8903;52.220;20.978;2023-05-07T11:27:56;11.70;99.90
17571;DHT22;8903;52.220;20.978;2023-05-07T11:30:24;11.80;99.90
17571;DHT22;8903;52.220;20.978;2023-05-07T11:32:52;11.80;99.90
17571;DHT22;8903;52.220;20.978;2023-05-07T11:35:23;11.90;99.90
17571;DHT22;8903;52.220;20.978;2023-05-07T11:37:58;11.80;99.90
17571;DHT22;8903;52.220;20.978;2023-05-07T11:40:29;11.80;99.90
17571;DHT22;8903;52.220;20.978;2023-05-07T11:42:56;12.00;99.90
17571;DHT22;8903;52.220;20.978;2023-05-07T11:45:25;12.10;99.90
17571;DHT22;8903;52.220;20.978;2023-05-07T11:47:52;12.20;99.90
17571;DHT22;8903;52.220;20.978;2023-05-07T11:50:19;12.10;99.90
17571;DHT22;8903;52.220;20.978;2023-05-07T11:52:50;12.00;99.90
17571;DHT22;8903;52.220;20.978;2023-05-07T11:55:18;12.10;99.90
17571;DHT22;8903;52.220;20.978;2023-05-07T11:57:46;12.30;99.90
17571;DHT22;8903;52.220;20.978;2023-05-07T12:00:16;12.70;99.90
17571;DHT22;8903;52.220;20.978;2023-05-07T12:02:44;13.00;99.90
17571;DHT22;8903;52.220;20.978;2023-05-07T12:05:12;13.30;99.30
17571;DHT22;8903;52.220;20.978;2023-05-07T12:07:39;13.30;99.60
17571;DHT22;8903;52.220;20.978;2023-05-07T12:10:06;13.50;99.00
17571;DHT22;8903;52.220;20.978;2023-05-07T12:12:38;13.30;98.70
17571;DHT22;8903;52.220;20.978;2023-05-07T12:15:08;13.20;98.80
17571;DHT22;8903;52.220;20.978;2023-05-07T12:17:36;13.20;98.70
17571;DHT22;8903;52.220;20.978;2023-05-07T12:20:04;13.00;98.80
17571;DHT22;8903;52.220;20.978;2023-05-07T12:22:31;12.80;99.10
17571;DHT22;8903;52.220;20.978;2023-05-07T12:24:58;12.50;99.40
17571;DHT22;8903;52.220;20.978;2023-05-07T12:27:26;12.30;99.90
17571;DHT22;8903;52.220;20.978;2023-05-07T12:29:53;12.20;99.90
17571;DHT22;8903;52.220;20.978;2023-05-07T12:32:22;12.30;99.90
17571;DHT22;8903;52.220;20.978;2023-05-07T12:34:50;12.50;99.90
17571;DHT22;8903;52.220;20.978;2023-05-07T12:37:23;12.60;99.80
17571;DHT22;8903;52.220;20.978;2023-05-07T12:40:03;12.50;99.60
17571;DHT22;8903;52.220;20.978;2023-05-07T12:42:33;12.50;99.60
17571;DHT22;8903;52.220;20.978;2023-05-07T12:45:08;12.40;99.60
17571;DHT22;8903;52.220;20.978;2023-05-07T12:47:36;12.40;99.90
17571;DHT22;8903;52.220;20.978;2023-05-07T12:50:06;12.50;99.30
17571;DHT22;8903;52.220;20.978;2023-05-07T12:52:33;12.40;99.50
17571;DHT22;8903;52.220;20.978;2023-05-07T12:55:05;12.50;99.50
17571;DHT22;8903;52.220;20.978;2023-05-07T12:57:37;12.50;99.20
17571;DHT22;8903;52.220;20.978;2023-05-07T13:00:06;12.60;99.50
17571;DHT22;8903;52.220;20.978;2023-05-07T13:02:37;12.80;99.10
17571;DHT22;8903;52.220;20.978;2023-05-07T13:05:04;13.00;98.90
17571;DHT22;8903;52.220;20.978;2023-05-07T13:07:31;13.00;98.90
17571;DHT22;8903;52.220;20.978;2023-05-07T13:09:58;13.20;98.80
17571;DHT22;8903;52.220;20.978;2023-05-07T13:12:25;13.40;98.60
17571;DHT22;8903;52.220;20.978;2023-05-07T13:14:53;13.30;98.00
17571;DHT22;8903;52.220;20.978;2023-05-07T13:17:19;13.20;98.00
17571;DHT22;8903;52.220;20.978;2023-05-07T13:19:48;13.00;98.50
17571;DHT22;8903;52.220;20.978;2023-05-07T13:22:15;13.00;98.40
17571;DHT22;8903;52.220;20.978;2023-05-07T13:24:42;12.90;98.50
17571;DHT22;8903;52.220;20.978;2023-05-07T13:27:09;12.80;98.80
17571;DHT22;8903;52.220;20.978;2023-05-07T13:29:36;12.80;98.60
17571;DHT22;8903;52.220;20.978;2023-05-07T13:32:03;12.90;98.70
17571;DHT22;8903;52.220;20.978;2023-05-07T13:34:30;12.90;98.70
17571;DHT22;8903;52.220;20.978;2023-05-07T13:36:59;13.20;98.60
17571;DHT22;8903;52.220;20.978;2023-05-07T13:39:26;13.60;98.40
17571;DHT22;8903;52.220;20.978;2023-05-07T13:41:53;14.10;97.50
17571;DHT22;8903;52.220;20.978;2023-05-07T13:44:20;14.60;96.20
17571;DHT22;8903;52.220;20.978;2023-05-07T13:46:47;14.70;95.80
17571;DHT22;8903;52.220;20.978;2023-05-07T13:49:14;14.70;96.00
17571;DHT22;8903;52.220;20.978;2023-05-07T13:51:41;15.20;95.80
17571;DHT22;8903;52.220;20.978;2023-05-07T13:54:09;15.30;94.40
17571;DHT22;8903;52.220;20.978;2023-05-07T13:56:36;15.10;94.50
17571;DHT22;8903;52.220;20.978;2023-05-07T13:59:03;15.10;94.90
17571;DHT22;8903;52.220;20.978;2023-05-07T14:01:31;14.80;95.10
17571;DHT22;8903;52.220;20.978;2023-05-07T14:03:58;14.60;95.20
17571;DHT22;8903;52.220;20.978;2023-05-07T14:06:25;14.50;95.40
17571;DHT22;8903;52.220;20.978;2023-05-07T14:08:52;14.30;95.90
17571;DHT22;8903;52.220;20.978;2023-05-07T14:11:20;14.40;95.90
17571;DHT22;8903;52.220;20.978;2023-05-07T14:13:47;14.60;95.70
17571;DHT22;8903;52.220;20.978;2023-05-07T14:16:15;14.90;95.10
17571;DHT22;8903;52.220;20.978;2023-05-07T14:18:42;15.40;94.70
17571;DHT22;8903;52.220;20.978;2023-05-07T14:21:09;15.40;94.50
17571;DHT22;8903;52.220;20.978;2023-05-07T14:23:36;15.60;95.00
17571;DHT22;8903;52.220;20.978;2023-05-07T14:26:03;15.70;94.20
17571;DHT22;8903;52.220;20.978;2023-05-07T14:28:32;16.00;93.80
17571;DHT22;8903;52.220;20.978;2023-05-07T14:30:59;16.10;93.20
17571;DHT22;8903;52.220;20.978;2023-05-07T14:33:26;16.10;93.40
17571;DHT22;8903;52.220;20.978;2023-05-07T14:35:53;15.90;93.60
17571;DHT22;8903;52.220;20.978;2023-05-07T14:38:20;15.40;94.30
17571;DHT22;8903;52.220;20.978;2023-05-07T14:40:47;15.10;94.80
17571;DHT22;8903;52.220;20.978;2023-05-07T14:43:14;14.80;94.80
17571;DHT22;8903;52.220;20.978;2023-05-07T14:45:42;14.80;94.60
17571;DHT22;8903;52.220;20.978;2023-05-07T14:48:09;14.90;95.30
17571;DHT22;8903;52.220;20.978;2023-05-07T14:50:40;15.30;94.60
17571;DHT22;8903;52.220;20.978;2023-05-07T14:53:07;15.40;93.80
17571;DHT22;8903;52.220;20.978;2023-05-07T14:55:34;15.40;93.50
17571;DHT22;8903;52.220;20.978;2023-05-07T14:58:01;15.40;93.50
17571;DHT22;8903;52.220;20.978;2023-05-07T15:00:28;15.50;93.80
17571;DHT22;8903;52.220;20.978;2023-05-07T15:03:06;15.70;93.10
17571;DHT22;8903;52.220;20.978;2023-05-07T15:05:33;15.60;93.50
17571;DHT22;8903;52.220;20.978;2023-05-07T15:08:00;15.30;93.50
17571;DHT22;8903;52.220;20.978;2023-05-07T15:10:28;15.40;93.60
17571;DHT22;8903;52.220;20.978;2023-05-07T15:12:55;15.60;93.30
17571;DHT22;8903;52.220;20.978;2023-05-07T15:15:21;15.70;92.80
17571;DHT22;8903;52.220;20.978;2023-05-07T15:17:49;15.70;92.70
17571;DHT22;8903;52.220;20.978;2023-05-07T15:20:18;15.80;92.50
17571;DHT22;8903;52.220;20.978;2023-05-07T15:22:45;15.80;92.90
17571;DHT22;8903;52.220;20.978;2023-05-07T15:25:12;15.70;92.70
17571;DHT22;8903;52.220;20.978;2023-05-07T15:27:39;15.80;92.90
17571;DHT22;8903;52.220;20.978;2023-05-07T15:30:07;15.90;92.30
17571;DHT22;8903;52.220;20.978;2023-05-07T15:32:35;15.70;92.20
17571;DHT22;8903;52.220;20.978;2023-05-07T15:35:03;15.50;92.30
17571;DHT22;8903;52.220;20.978;2023-05-07T15:37:31;15.10;92.70
17571;DHT22;8903;52.220;20.978;2023-05-07T15:39:58;15.00;93.00
17571;DHT22;8903;52.220;20.978;2023-05-07T15:42:27;14.80;93.60
17571;DHT22;8903;52.220;20.978;2023-05-07T15:44:54;14.50;93.70
17571;DHT22;8903;52.220;20.978;2023-05-07T15:47:22;14.40;93.70
17571;DHT22;8903;52.220;20.978;2023-05-07T15:49:49;14.30;93.90
17571;DHT22;8903;52.220;20.978;2023-05-07T15:52:16;14.30;94.50